ZMUB/ULN METAR and TAF weather

Enter ICAO airport designator
Station Type Date Time Source
ZMUB METAR 2019/12/10 06:00 UTC NOAA

ZMUB 100600Z VRB01MPS 9999 SCT033 M11/M15 Q1016 NOSIG RMK QFE655.1 66 MOP


Station Type Date Time Source
ZMUB Decoded METAR 2019/12/10 06:00 UTC NOAA

Ulan-Bator, Mongolia (ZMUB) 47-51N 106-46E
Dec 10, 2019 - 01:00 AM EST / 2019.12.10 0600 UTC
Wind: Variable at 2 MPH (2 KT):0
Visibility: greater than 7 mile(s):0
Sky conditions: partly cloudy
Temperature: 12 F (-11 C)
Dew Point: 5 F (-15 C)
Relative Humidity: 72%
Pressure (altimeter): 30.00 in. Hg (1016 hPa)
ob: ZMUB 100600Z VRB01MPS 9999 SCT033 M11/M15 Q1016 NOSIG RMK QFE655.1 66 MOP
cycle: 6

Station Type Date Time Source
ZMUB TAF 2019/12/10 06:42 UTC NOAA

TAF TAF ZMUB 100440Z 1006/1112 32005MPS 9999 SCT033 SCT100 TXM11/1007Z TNM27/1023Z
BECMG 1009/1011 VRB02MPS SCT100
BECMG 1022/1024 6000

Example: see airport list